Time;durP1;ratioP1;P1;durP2;ratioP2;P2;SDS_P1;SDS_P2;PMS_P1;PMS_P2;Temp;Humidity;BMP_temperature;BMP_pressure;BME280_temperature;BME280_humidity;BME280_pressure;Samples;Min_cycle;Max_cycle;Signal;HPM_P1;HPM_P2
2023/04/14 00:02:02;;;;;;;3.03;1.73;;;;;;;7.31;69.07;98858.78;4966951;28;20200;-79
2023/04/14 00:04:27;;;;;;;5.57;2.50;;;;;;;7.36;68.87;98855.88;4962041;28;20450;-81
2023/04/14 00:06:55;;;;;;;6.43;2.50;;;;;;;7.35;68.67;98865.50;4963283;28;20640;-79
2023/04/14 00:09:21;;;;;;;3.83;1.83;;;;;;;7.31;68.85;98864.81;4964638;28;20313;-79
2023/04/14 00:11:46;;;;;;;4.77;1.97;;;;;;;7.30;68.85;98867.56;4965416;28;20670;-79
2023/04/14 00:14:12;;;;;;;4.10;2.03;;;;;;;7.28;68.80;98862.41;4966981;28;20200;-80
2023/04/14 00:16:41;;;;;;;3.00;1.83;;;;;;;7.20;68.86;98856.00;4964262;28;20215;-81
2023/04/14 00:19:07;;;;;;;3.00;2.25;;;;;;;7.13;69.13;98852.94;4964196;28;20701;-80
2023/04/14 00:21:32;;;;;;;4.47;2.00;;;;;;;7.07;69.34;98850.69;4970738;28;20748;-79
2023/04/14 00:23:58;;;;;;;4.50;2.83;;;;;;;7.05;69.26;98844.72;4966216;28;20212;-80
2023/04/14 00:26:23;;;;;;;4.60;2.17;;;;;;;7.05;69.23;98842.94;4965342;28;20235;-80
2023/04/14 00:28:49;;;;;;;2.20;1.97;;;;;;;7.06;68.91;98849.84;4949691;28;20200;-80
2023/04/14 00:31:15;;;;;;;3.17;2.10;;;;;;;7.07;69.16;98848.06;4956254;28;20267;-80
2023/04/14 00:33:40;;;;;;;2.87;1.80;;;;;;;7.06;69.16;98844.63;4963281;28;20216;-80
2023/04/14 00:36:06;;;;;;;8.50;4.37;;;;;;;7.07;69.00;98848.94;4947178;28;20517;-80
2023/04/14 00:38:31;;;;;;;4.10;1.93;;;;;;;7.07;68.96;98843.72;4964529;28;20662;-79
2023/04/14 00:40:57;;;;;;;3.07;2.00;;;;;;;7.06;68.98;98841.19;4965157;28;20279;-79
2023/04/14 00:43:22;;;;;;;2.80;2.47;;;;;;;7.02;68.97;98850.97;4964343;28;20584;-79
2023/04/14 00:45:49;;;;;;;3.77;1.90;;;;;;;6.93;69.21;98848.06;4962871;28;20212;-79
2023/04/14 00:48:17;;;;;;;3.88;2.67;;;;;;;6.85;69.36;98844.16;4947564;28;20197;-79
2023/04/14 00:50:42;;;;;;;3.25;2.60;;;;;;;6.77;69.29;98856.00;4966782;28;20204;-79
2023/04/14 00:53:10;;;;;;;2.40;2.20;;;;;;;6.71;69.56;98854.59;4949483;28;20689;-80
2023/04/14 00:55:37;;;;;;;2.40;1.70;;;;;;;6.67;69.42;98853.13;4964340;28;20879;-80
2023/04/14 00:58:03;;;;;;;3.65;2.20;;;;;;;6.63;69.47;98854.22;4959998;28;20281;-79
2023/04/14 01:00:29;;;;;;;5.20;2.27;;;;;;;6.61;69.67;98858.66;4960496;28;20204;-79
2023/04/14 01:02:55;;;;;;;3.78;1.77;;;;;;;6.58;69.51;98854.47;4948561;28;20204;-79
2023/04/14 01:05:20;;;;;;;2.63;2.43;;;;;;;6.59;69.69;98856.19;4965740;28;20339;-80
2023/04/14 01:07:48;;;;;;;3.30;2.93;;;;;;;6.63;69.55;98859.44;4962286;28;20212;-79
2023/04/14 01:10:14;;;;;;;3.95;1.80;;;;;;;6.66;69.64;98867.06;4965889;28;20580;-79
2023/04/14 01:13:01;;;;;;;6.10;2.20;;;;;;;6.67;69.55;98858.34;4947445;28;20208;-78
2023/04/14 01:15:37;;;;;;;8.43;2.00;;;;;;;6.63;69.36;98856.81;4963747;28;20693;-78
2023/04/14 01:18:30;;;;;;;3.28;1.98;;;;;;;6.60;69.26;98862.22;4960703;28;20310;-79
2023/04/14 01:21:02;;;;;;;4.55;1.70;;;;;;;6.54;69.50;98868.66;4946039;28;20203;-79
2023/04/14 01:23:48;;;;;;;4.20;2.08;;;;;;;6.54;69.31;98862.59;4960744;28;20690;-79
2023/04/14 01:26:30;;;;;;;2.70;2.10;;;;;;;6.52;69.31;98864.44;4943657;28;20208;-78
2023/04/14 01:29:27;;;;;;;1.85;1.75;;;;;;;6.50;69.08;98874.13;4938932;28;20201;-79
2023/04/14 01:32:17;;;;;;;2.45;1.60;;;;;;;6.48;69.34;98875.97;4947225;28;20240;-78
2023/04/14 01:34:51;;;;;;;3.38;2.10;;;;;;;6.39;69.28;98872.97;4965457;28;20200;-78
2023/04/14 01:37:28;;;;;;;3.35;2.50;;;;;;;6.23;69.32;98869.59;4939414;28;20192;-78
2023/04/14 01:39:57;;;;;;;3.30;2.35;;;;;;;6.11;69.94;98870.31;4947520;28;20192;-79
2023/04/14 01:42:28;;;;;;;6.38;2.33;;;;;;;6.05;70.31;98881.94;4947500;28;20319;-78
2023/04/14 01:44:57;;;;;;;3.92;2.38;;;;;;;6.02;70.42;98881.22;4965373;28;20220;-79
2023/04/14 01:47:25;;;;;;;4.60;2.83;;;;;;;6.00;70.03;98880.50;4959777;28;20298;-78
2023/04/14 01:49:52;;;;;;;5.32;2.38;;;;;;;5.98;69.97;98881.41;4956390;28;20192;-79
2023/04/14 01:52:20;;;;;;;4.95;2.80;;;;;;;5.97;69.90;98886.72;4959160;28;20198;-78
2023/04/14 01:54:50;;;;;;;5.78;3.63;;;;;;;5.94;69.89;98885.13;4946123;28;20192;-78
2023/04/14 01:57:19;;;;;;;3.08;2.35;;;;;;;5.93;70.17;98890.38;4942555;28;20706;-78
2023/04/14 01:59:47;;;;;;;3.28;1.80;;;;;;;5.92;69.84;98884.34;4950383;28;20354;-77
2023/04/14 02:02:14;;;;;;;6.05;2.47;;;;;;;5.90;70.20;98883.59;4951422;28;20719;-79
2023/04/14 02:04:41;;;;;;;2.42;1.85;;;;;;;5.89;69.79;98886.28;4951395;28;20223;-78
2023/04/14 02:07:10;;;;;;;2.97;2.17;;;;;;;5.87;69.77;98890.75;4965629;28;20236;-78
2023/04/14 02:09:38;;;;;;;4.95;2.05;;;;;;;5.87;70.22;98888.13;4969031;28;20290;-78
2023/04/14 02:12:05;;;;;;;4.85;3.00;;;;;;;5.85;69.89;98889.97;4959511;28;20207;-79
2023/04/14 02:14:33;;;;;;;1.75;1.60;;;;;;;5.80;69.80;98892.84;4967912;28;20191;-80
2023/04/14 02:17:01;;;;;;;4.43;1.98;;;;;;;5.77;70.21;98893.00;4950661;28;20240;-78
2023/04/14 02:19:28;;;;;;;2.72;2.47;;;;;;;5.77;70.17;98893.00;4961287;28;20253;-78
2023/04/14 02:21:55;;;;;;;2.67;1.30;;;;;;;5.75;70.10;98890.50;4950040;28;20230;-78
2023/04/14 02:24:22;;;;;;;4.60;2.30;;;;;;;5.75;70.03;98893.09;4949004;28;20236;-79
2023/04/14 02:26:57;;;;;;;4.20;2.73;;;;;;;5.70;69.89;98879.50;4962466;28;20708;-78
2023/04/14 02:29:24;;;;;;;3.15;2.35;;;;;;;5.63;69.87;98878.13;4947327;28;20894;-80
2023/04/14 02:31:58;;;;;;;3.42;2.63;;;;;;;5.56;70.05;98884.59;4967193;28;20232;-79
2023/04/14 02:34:29;;;;;;;2.60;2.00;;;;;;;5.53;70.51;98882.16;4967686;28;20185;-78
2023/04/14 02:36:58;;;;;;;2.38;1.63;;;;;;;5.55;70.19;98882.94;4963218;28;20208;-78
2023/04/14 02:39:30;;;;;;;4.88;2.97;;;;;;;5.60;70.24;98880.91;4968089;28;20626;-78
2023/04/14 02:42:06;;;;;;;5.43;2.85;;;;;;;5.63;70.35;98885.94;4953536;28;20192;-78
2023/04/14 02:44:37;;;;;;;2.28;1.75;;;;;;;5.65;69.77;98883.28;4967554;28;20208;-78
2023/04/14 02:47:12;;;;;;;1.85;1.50;;;;;;;5.62;70.06;98883.44;4957188;28;20212;-79
2023/04/14 02:49:45;;;;;;;5.38;1.80;;;;;;;5.56;69.61;98900.22;4950678;28;20669;-79
2023/04/14 02:52:15;;;;;;;2.38;2.08;;;;;;;5.52;70.11;98890.91;4952811;28;20212;-78
2023/04/14 02:54:43;;;;;;;2.42;2.08;;;;;;;5.49;70.02;98897.13;4949466;28;20756;-78
2023/04/14 02:57:10;;;;;;;2.13;1.23;;;;;;;5.47;70.12;98901.56;4966196;28;20201;-78
2023/04/14 02:59:41;;;;;;;3.10;1.50;;;;;;;5.45;70.18;98903.41;4959928;28;20266;-78
2023/04/14 03:02:10;;;;;;;2.33;1.90;;;;;;;5.39;69.91;98908.97;4958868;28;20925;-78
2023/04/14 03:04:40;;;;;;;3.03;2.28;;;;;;;5.33;70.04;98904.09;4945702;28;20224;-78
2023/04/14 03:07:14;;;;;;;2.50;1.80;;;;;;;5.33;69.93;98906.69;4957465;28;20274;-79
2023/04/14 03:09:41;;;;;;;5.60;2.03;;;;;;;5.33;70.37;98906.69;4949668;28;20193;-79
2023/04/14 03:12:11;;;;;;;4.70;3.85;;;;;;;5.34;70.14;98908.38;4966314;28;20205;-79
2023/04/14 03:14:37;;;;;;;3.75;2.40;;;;;;;5.35;70.14;98909.19;4969126;28;20231;-79
2023/04/14 03:17:03;;;;;;;3.35;1.90;;;;;;;5.35;70.05;98902.25;4965050;28;20240;-79
2023/04/14 03:19:30;;;;;;;2.08;1.60;;;;;;;5.37;70.19;98908.19;4967605;28;20680;-78
2023/04/14 03:21:58;;;;;;;4.45;2.42;;;;;;;5.36;70.11;98913.50;4952153;28;20200;-78
2023/04/14 03:24:29;;;;;;;3.28;1.95;;;;;;;5.36;69.98;98909.13;4946004;28;20205;-78
2023/04/14 03:27:00;;;;;;;4.18;2.00;;;;;;;5.38;69.80;98916.88;4965263;28;20200;-78
2023/04/14 03:29:31;;;;;;;4.80;2.15;;;;;;;5.36;70.04;98916.09;4956165;28;20193;-79
2023/04/14 03:31:59;;;;;;;2.38;1.75;;;;;;;5.35;69.88;98912.66;4959123;28;20287;-78
2023/04/14 03:34:28;;;;;;;3.50;1.65;;;;;;;5.34;69.81;98918.78;4966652;28;20176;-78
2023/04/14 03:36:56;;;;;;;4.50;1.40;;;;;;;5.31;69.80;98917.19;4956607;28;20224;-78
2023/04/14 03:39:26;;;;;;;4.35;2.22;;;;;;;5.28;69.83;98917.34;4943798;28;20192;-78
2023/04/14 03:41:54;;;;;;;5.40;2.70;;;;;;;5.21;69.99;98920.34;4968005;28;20192;-78
2023/04/14 03:44:21;;;;;;;6.07;2.83;;;;;;;5.12;69.89;98920.84;4947743;28;20212;-78
2023/04/14 03:46:49;;;;;;;3.67;2.17;;;;;;;5.06;70.21;98917.63;4964613;28;20602;-78
2023/04/14 03:49:16;;;;;;;2.33;1.60;;;;;;;5.03;70.16;98923.00;4965173;28;20554;-78
2023/04/14 03:51:47;;;;;;;3.17;1.83;;;;;;;5.00;70.21;98930.97;4955551;28;20688;-77
2023/04/14 03:54:15;;;;;;;9.20;2.63;;;;;;;4.98;70.39;98932.81;4946350;28;20204;-78
2023/04/14 03:56:44;;;;;;;5.40;2.25;;;;;;;4.99;70.25;98929.28;4963570;28;20219;-79
2023/04/14 03:59:15;;;;;;;6.32;2.58;;;;;;;4.98;70.02;98935.41;4957789;28;20205;-78
2023/04/14 04:01:42;;;;;;;3.38;2.00;;;;;;;4.93;70.21;98928.75;4946078;28;20199;-78
2023/04/14 04:04:08;;;;;;;3.20;2.50;;;;;;;4.86;70.15;98931.69;4959386;28;20251;-77
2023/04/14 04:06:35;;;;;;;3.90;2.55;;;;;;;4.78;70.44;98926.03;4992343;23;20228;-80
2023/04/14 04:09:01;;;;;;;4.18;1.90;;;;;;;4.74;70.38;98924.50;4958656;28;20203;-80
2023/04/14 04:11:28;;;;;;;3.87;1.97;;;;;;;4.70;70.60;98929.91;4969691;28;20205;-80
2023/04/14 04:13:56;;;;;;;4.55;3.17;;;;;;;4.64;70.14;98934.53;4974723;28;20481;-80
2023/04/14 04:16:26;;;;;;;3.80;2.70;;;;;;;4.60;70.36;98938.19;4981613;28;20318;-80
2023/04/14 04:18:52;;;;;;;6.22;4.00;;;;;;;4.60;70.67;98940.81;4992902;28;20199;-80
2023/04/14 04:21:27;;;;;;;6.95;3.35;;;;;;;4.65;70.51;98943.19;4996163;28;20199;-80
2023/04/14 04:23:54;;;;;;;6.22;3.67;;;;;;;4.65;70.16;98949.22;5008791;28;20261;-81
2023/04/14 04:26:28;;;;;;;3.97;2.80;;;;;;;4.65;70.16;98953.59;4991038;28;20199;-80
2023/04/14 04:28:57;;;;;;;3.88;2.67;;;;;;;4.57;69.95;98956.56;5003053;28;20359;-80
2023/04/14 04:31:26;;;;;;;4.05;2.67;;;;;;;4.54;70.32;98954.13;4978905;28;20296;-78
2023/04/14 04:33:52;;;;;;;4.72;2.60;;;;;;;4.47;70.26;98944.94;4979096;28;20219;-78
2023/04/14 04:36:19;;;;;;;3.10;2.72;;;;;;;4.43;70.40;98964.22;4975308;28;20628;-78
2023/04/14 04:38:45;;;;;;;2.65;2.25;;;;;;;4.32;70.63;98961.25;4975375;28;20201;-78
2023/04/14 04:41:30;;;;;;;3.28;2.10;;;;;;;4.21;70.83;98960.03;4996168;28;20203;-78
2023/04/14 04:43:58;;;;;;;3.17;1.58;;;;;;;4.20;71.14;98952.31;4979237;28;20318;-77
2023/04/14 04:46:33;;;;;;;8.07;2.13;;;;;;;4.27;70.93;98963.28;4978368;28;20577;-78
2023/04/14 04:48:58;;;;;;;2.20;1.80;;;;;;;4.34;71.06;98962.03;4993550;28;20589;-78
2023/04/14 04:51:25;;;;;;;2.17;1.97;;;;;;;4.39;70.85;98958.28;4980947;28;20202;-77
2023/04/14 04:53:51;;;;;;;3.75;2.25;;;;;;;4.38;70.51;98958.38;4979629;28;20231;-78
2023/04/14 04:56:16;;;;;;;5.93;2.58;;;;;;;4.31;70.78;98963.03;4995512;28;20294;-80
2023/04/14 04:58:41;;;;;;;3.53;2.27;;;;;;;4.28;70.69;98967.53;5005518;28;20362;-80
2023/04/14 05:01:18;;;;;;;5.90;2.30;;;;;;;4.32;70.87;98967.34;5004109;28;20234;-80
2023/04/14 05:03:54;;;;;;;2.92;2.15;;;;;;;4.46;71.09;98971.03;4989767;28;20214;-80
2023/04/14 05:06:20;;;;;;;3.28;2.63;;;;;;;4.69;70.59;98959.47;5010732;28;20218;-80
2023/04/14 05:08:46;;;;;;;3.40;3.00;;;;;;;4.99;69.94;98964.88;5008644;28;20220;-80
2023/04/14 05:11:11;;;;;;;2.43;2.00;;;;;;;5.31;68.98;98965.81;5002432;28;20511;-80
2023/04/14 05:13:37;;;;;;;7.83;3.43;;;;;;;5.61;68.24;98965.94;5020127;28;20213;-81
2023/04/14 05:16:07;;;;;;;2.80;1.93;;;;;;;5.93;67.34;98966.84;5020222;28;20785;-80
2023/04/14 05:18:33;;;;;;;3.20;2.15;;;;;;;6.25;66.68;98969.44;5019717;28;20199;-80
2023/04/14 05:21:02;;;;;;;3.95;2.00;;;;;;;6.59;65.95;98970.16;5020609;28;20273;-77
2023/04/14 05:23:28;;;;;;;3.90;3.05;;;;;;;6.94;64.81;98981.16;5017567;28;20198;-81
2023/04/14 05:25:57;;;;;;;6.20;5.55;;;;;;;7.35;63.99;98982.22;5019612;28;20206;-81
2023/04/14 05:28:22;;;;;;;5.57;3.63;;;;;;;7.62;63.12;98974.47;5017261;28;20210;-82
2023/04/14 05:30:49;;;;;;;5.00;4.27;;;;;;;7.73;62.90;98980.72;5017003;28;20451;-81
2023/04/14 05:33:14;;;;;;;6.20;2.60;;;;;;;7.81;62.49;98987.25;5020710;28;20296;-81
2023/04/14 05:35:40;;;;;;;3.90;3.60;;;;;;;7.92;62.40;98987.41;5030481;28;20356;-81
2023/04/14 05:38:06;;;;;;;2.42;1.85;;;;;;;8.09;62.01;98981.94;5025306;28;20210;-82
2023/04/14 05:40:32;;;;;;;4.07;2.47;;;;;;;8.13;61.53;98988.69;5022525;28;20252;-81
2023/04/14 05:42:57;;;;;;;2.20;1.77;;;;;;;8.02;61.66;98991.13;5017931;28;20616;-82
2023/04/14 05:45:23;;;;;;;1.83;1.37;;;;;;;7.88;61.80;98983.28;5022323;28;20456;-82
2023/04/14 05:47:49;;;;;;;3.05;2.10;;;;;;;7.80;61.95;98982.94;5022611;28;20274;-82
2023/04/14 05:50:15;;;;;;;2.50;2.30;;;;;;;7.76;62.06;98990.97;5025730;28;20286;-82
2023/04/14 05:52:40;;;;;;;3.90;2.27;;;;;;;7.67;62.30;98983.72;5028885;28;20194;-81
2023/04/14 05:55:06;;;;;;;2.10;1.90;;;;;;;7.61;62.80;98984.06;5027400;28;20475;-81
2023/04/14 05:57:32;;;;;;;3.30;2.07;;;;;;;7.58;62.63;98984.25;5003182;28;20213;-82
2023/04/14 05:59:57;;;;;;;3.40;2.40;;;;;;;7.62;62.75;98980.53;5025116;28;20457;-83
2023/04/14 06:02:22;;;;;;;1.77;1.57;;;;;;;7.81;62.53;98985.47;5025117;28;20186;-83
2023/04/14 06:04:48;;;;;;;2.13;1.50;;;;;;;8.09;62.05;98987.19;5008152;28;20191;-83
2023/04/14 06:07:14;;;;;;;4.00;3.05;;;;;;;8.58;61.06;98985.84;5025537;28;22533;-82
2023/04/14 06:09:41;;;;;;;5.27;2.97;;;;;;;9.26;59.57;98982.16;5023509;28;20209;-81
2023/04/14 06:12:07;;;;;;;2.05;1.73;;;;;;;10.07;57.98;98978.28;5025193;28;20202;-82
2023/04/14 06:14:32;;;;;;;6.03;2.03;;;;;;;10.81;56.25;98969.34;5026510;28;20213;-82
2023/04/14 06:16:58;;;;;;;5.03;1.67;;;;;;;11.42;54.61;98966.50;5019737;28;22929;-82
2023/04/14 06:19:23;;;;;;;3.37;1.97;;;;;;;11.93;52.78;98967.78;5019277;28;20212;-79
2023/04/14 06:21:49;;;;;;;5.90;1.83;;;;;;;12.34;51.87;98961.84;5017889;28;20301;-78
2023/04/14 06:24:14;;;;;;;3.93;1.93;;;;;;;12.68;51.06;98958.25;5015189;28;20210;-80
2023/04/14 06:26:40;;;;;;;3.30;2.10;;;;;;;13.05;50.27;98946.28;5015615;28;20206;-79
2023/04/14 06:29:06;;;;;;;2.38;1.75;;;;;;;13.46;49.16;98943.75;5015466;28;20230;-78
2023/04/14 06:31:32;;;;;;;3.43;2.03;;;;;;;13.75;48.64;98941.25;5016543;28;20233;-78
2023/04/14 06:33:58;;;;;;;3.30;2.20;;;;;;;14.05;48.04;98940.34;5013834;28;20449;-79
2023/04/14 06:36:23;;;;;;;6.00;2.57;;;;;;;14.30;47.30;98936.34;5016706;28;20473;-81
2023/04/14 06:38:48;;;;;;;4.20;2.33;;;;;;;14.43;47.08;98936.06;5015409;28;20614;-78
2023/04/14 06:41:14;;;;;;;5.20;2.53;;;;;;;14.33;46.72;98936.06;5016196;28;20214;-79
2023/04/14 06:43:41;;;;;;;2.63;2.13;;;;;;;13.81;47.33;98932.78;5016250;28;20210;-79
2023/04/14 06:46:07;;;;;;;3.25;2.70;;;;;;;13.06;48.75;98939.22;5013340;28;21080;-81
2023/04/14 06:48:32;;;;;;;5.17;2.90;;;;;;;12.42;49.99;98942.78;5014470;28;20194;-81
2023/04/14 06:50:58;;;;;;;3.43;1.87;;;;;;;11.88;50.99;98941.88;5017680;28;21322;-79
2023/04/14 06:53:24;;;;;;;5.13;2.40;;;;;;;11.38;51.88;98930.84;5014346;28;20199;-82
2023/04/14 06:55:57;;;;;;;5.15;2.67;;;;;;;10.88;52.89;98937.34;4987700;28;20217;-83
2023/04/14 06:58:26;;;;;;;2.15;1.45;;;;;;;10.47;53.89;98941.28;5009382;28;20222;-82
2023/04/14 07:00:59;;;;;;;2.33;1.90;;;;;;;10.23;54.47;98938.63;5012217;28;20188;-80
2023/04/14 07:03:25;;;;;;;3.38;1.98;;;;;;;10.07;54.55;98936.28;5012238;28;20241;-81
2023/04/14 07:05:51;;;;;;;3.10;2.20;;;;;;;9.96;54.83;98927.44;5014876;28;20449;-81
2023/04/14 07:08:18;;;;;;;2.97;2.17;;;;;;;9.87;55.24;98938.56;5015334;28;20690;-82
2023/04/14 07:10:43;;;;;;;5.05;1.95;;;;;;;9.82;55.34;98935.44;5018658;28;20201;-81
2023/04/14 07:13:09;;;;;;;6.60;2.87;;;;;;;9.82;55.27;98930.19;5016808;28;20783;-81
2023/04/14 07:15:34;;;;;;;3.20;2.40;;;;;;;9.81;55.38;98925.06;5015294;28;20255;-83
2023/04/14 07:18:00;;;;;;;4.47;2.43;;;;;;;9.81;55.52;98925.88;5018942;28;20194;-81
2023/04/14 07:20:25;;;;;;;2.47;1.80;;;;;;;9.84;55.75;98924.84;5020856;28;20202;-82
2023/04/14 07:22:51;;;;;;;6.23;2.40;;;;;;;10.17;55.39;98918.94;5019165;28;20242;-80
2023/04/14 07:25:17;;;;;;;4.30;1.70;;;;;;;10.96;53.70;98912.16;4996722;28;20915;-79
2023/04/14 07:27:43;;;;;;;3.45;1.80;;;;;;;11.91;51.64;98910.03;5019488;28;20207;-80
2023/04/14 07:30:08;;;;;;;3.47;1.13;;;;;;;12.73;49.70;98906.00;5020673;28;20198;-80
2023/04/14 07:32:34;;;;;;;3.60;1.90;;;;;;;13.40;48.18;98902.09;5016119;28;20446;-82
2023/04/14 07:34:59;;;;;;;1.60;1.50;;;;;;;13.92;46.94;98895.69;5018206;28;20195;-79
2023/04/14 07:37:25;;;;;;;3.43;1.90;;;;;;;14.41;45.28;98884.34;5017164;28;20234;-79
2023/04/14 07:39:50;;;;;;;2.33;1.40;;;;;;;14.66;44.74;98878.50;5021468;28;20257;-83
2023/04/14 07:42:16;;;;;;;2.43;1.80;;;;;;;14.94;44.25;98882.06;5023724;28;20283;-81
2023/04/14 07:44:41;;;;;;;5.13;2.00;;;;;;;15.44;43.12;98875.63;5016709;28;20215;-81
2023/04/14 07:47:07;;;;;;;3.47;1.90;;;;;;;15.89;42.14;98882.78;5017921;28;20213;-82
2023/04/14 07:49:32;;;;;;;5.20;2.17;;;;;;;16.21;41.53;98887.59;5015118;28;20197;-79
2023/04/14 07:51:58;;;;;;;2.40;1.50;;;;;;;16.53;41.19;98883.56;5013256;28;20277;-79
2023/04/14 07:54:23;;;;;;;5.40;2.10;;;;;;;16.96;40.02;98874.78;5015068;28;20197;-81
2023/04/14 07:56:49;;;;;;;1.60;1.37;;;;;;;17.19;nan;98874.25;5019562;28;20837;-80
2023/04/14 07:59:14;;;;;;;4.47;2.03;;;;;;;17.16;nan;98870.09;5020523;28;20201;-80
2023/04/14 08:01:40;;;;;;;3.90;2.47;;;;;;;17.36;nan;98865.41;5018462;28;20640;-80
2023/04/14 08:04:06;;;;;;;8.20;2.20;;;;;;;17.86;nan;98859.28;5020525;28;20222;-79
2023/04/14 08:06:31;;;;;;;4.20;1.70;;;;;;;18.21;nan;98862.66;5023363;28;20741;-79
2023/04/14 08:08:57;;;;;;;4.40;1.70;;;;;;;18.19;nan;98848.69;5024355;28;20230;-80
2023/04/14 08:11:23;;;;;;;6.00;1.77;;;;;;;18.24;nan;98856.19;5024881;28;20198;-81
2023/04/14 08:13:51;;;;;;;3.50;2.20;;;;;;;18.09;nan;98853.31;5025623;28;20723;-80
2023/04/14 08:16:17;;;;;;;2.08;1.70;;;;;;;18.21;nan;98851.19;5024229;28;20625;-79
2023/04/14 08:18:43;;;;;;;3.60;1.73;;;;;;;18.43;nan;98850.53;5019637;28;20214;-81
2023/04/14 08:21:09;;;;;;;3.17;1.43;;;;;;;18.53;nan;98853.84;5021571;28;20206;-81
2023/04/14 08:23:34;;;;;;;3.43;1.97;;;;;;;18.44;nan;98851.34;5005129;28;20911;-80
2023/04/14 08:26:00;;;;;;;2.53;1.20;;;;;;;18.45;nan;98843.22;5023949;28;20301;-79
2023/04/14 08:28:27;;;;;;;2.83;2.00;;;;;;;18.25;nan;98857.84;5024483;28;20251;-80
2023/04/14 08:30:52;;;;;;;2.88;1.30;;;;;;;17.91;nan;98854.31;5019603;28;20203;-83
2023/04/14 08:33:18;;;;;;;5.33;1.87;;;;;;;17.66;nan;98849.88;5023751;28;20205;-82
2023/04/14 08:35:43;;;;;;;1.90;1.43;;;;;;;17.45;nan;98843.19;5026946;28;20206;-81
2023/04/14 08:38:09;;;;;;;3.37;1.90;;;;;;;17.31;nan;98837.63;5025907;28;20202;-81
2023/04/14 08:40:39;;;;;;;2.60;1.77;;;;;;;17.10;nan;98840.72;5027769;28;20191;-81
2023/04/14 08:43:05;;;;;;;2.10;1.92;;;;;;;17.02;nan;98837.00;5029611;28;20392;-80
2023/04/14 08:45:31;;;;;;;1.90;1.57;;;;;;;17.22;nan;98834.13;5027305;28;20282;-80
2023/04/14 08:47:58;;;;;;;3.13;1.80;;;;;;;17.43;nan;98833.72;5026506;28;20336;-80
2023/04/14 08:50:25;;;;;;;2.80;1.40;;;;;;;17.36;nan;98841.50;5027028;28;20210;-81
2023/04/14 08:52:54;;;;;;;2.25;1.48;;;;;;;17.29;nan;98832.50;5007412;28;20285;-80
2023/04/14 08:55:20;;;;;;;1.67;1.20;;;;;;;17.04;nan;98831.56;5027795;28;20241;-80
2023/04/14 08:57:47;;;;;;;3.90;1.90;;;;;;;16.67;nan;98839.75;5026929;28;20185;-80
2023/04/14 09:00:14;;;;;;;4.53;2.60;;;;;;;16.33;nan;98845.78;5026519;28;20277;-79
2023/04/14 09:02:41;;;;;;;3.92;1.42;;;;;;;16.11;nan;98839.13;5026089;28;20587;-80
2023/04/14 09:05:07;;;;;;;1.30;1.20;;;;;;;15.89;nan;98845.72;5024292;28;20217;-80
2023/04/14 09:07:33;;;;;;;2.80;1.20;;;;;;;15.57;nan;98847.00;5024689;28;20234;-81
2023/04/14 09:09:59;;;;;;;1.60;1.40;;;;;;;15.23;nan;98844.94;5025909;28;20202;-80
2023/04/14 09:12:26;;;;;;;6.10;1.70;;;;;;;15.11;nan;98851.38;5028536;28;20213;-80
2023/04/14 09:14:52;;;;;;;4.65;1.80;;;;;;;15.00;nan;98851.56;5025655;28;20179;-81
2023/04/14 09:17:19;;;;;;;4.95;2.05;;;;;;;14.94;nan;98847.69;5026471;28;20237;-81
2023/04/14 09:19:44;;;;;;;2.03;1.33;;;;;;;14.87;nan;98838.66;5027640;28;20203;-80
2023/04/14 09:22:10;;;;;;;2.43;1.93;;;;;;;14.76;nan;98837.03;5026593;28;20329;-80
2023/04/14 09:24:36;;;;;;;1.88;1.30;;;;;;;14.74;nan;98833.72;5024545;28;20206;-80
2023/04/14 09:27:05;;;;;;;2.90;1.53;;;;;;;14.93;nan;98837.25;5008991;28;20213;-80
2023/04/14 09:29:32;;;;;;;4.72;1.85;;;;;;;14.98;nan;98838.47;5031846;28;20344;-82
2023/04/14 09:31:57;;;;;;;4.32;1.75;;;;;;;14.78;nan;98834.25;5035695;28;20655;-82
2023/04/14 09:34:23;;;;;;;5.07;2.73;;;;;;;14.71;nan;98833.97;5037176;28;20987;-81
2023/04/14 09:37:02;;;;;;;4.70;2.17;;;;;;;14.57;nan;98831.78;5035675;28;20491;-81
2023/04/14 09:39:27;;;;;;;1.80;1.55;;;;;;;14.53;nan;98825.13;5030038;28;20253;-80
2023/04/14 09:41:53;;;;;;;3.07;1.83;;;;;;;14.57;nan;98827.31;5009927;28;20310;-82
2023/04/14 09:44:18;;;;;;;2.13;1.37;;;;;;;14.51;nan;98822.59;5026118;28;20334;-80
2023/04/14 09:47:04;;;;;;;1.47;1.37;;;;;;;14.67;nan;98822.03;5028575;28;20214;-81
2023/04/14 09:49:30;;;;;;;4.88;1.50;;;;;;;14.83;nan;98821.44;5035208;28;20206;-81
2023/04/14 09:52:05;;;;;;;6.10;3.30;;;;;;;14.92;nan;98825.84;5033107;28;20202;-81
2023/04/14 09:54:30;;;;;;;2.63;1.60;;;;;;;14.99;nan;98820.81;5033113;28;20186;-81
2023/04/14 09:56:56;;;;;;;5.23;1.40;;;;;;;15.04;nan;98823.84;5033397;28;20325;-82
2023/04/14 09:59:32;;;;;;;2.10;1.40;;;;;;;15.13;nan;98817.69;5032463;28;20195;-81
2023/04/14 10:02:06;;;;;;;3.72;1.70;;;;;;;15.11;nan;98819.66;5030708;28;20540;-83
2023/04/14 10:04:32;;;;;;;3.65;1.90;;;;;;;14.88;nan;98815.69;5030254;28;20264;-81
2023/04/14 10:06:58;;;;;;;1.75;1.30;;;;;;;14.77;nan;98811.41;5032693;28;20253;-82
2023/04/14 10:09:26;;;;;;;2.40;2.07;;;;;;;14.71;nan;98810.19;5025182;28;20248;-81
2023/04/14 10:12:08;;;;;;;3.20;1.30;;;;;;;14.87;nan;98806.09;5024254;28;20192;-81
2023/04/14 10:14:35;;;;;;;3.00;1.10;;;;;;;15.09;nan;98811.00;5023406;28;20201;-83
2023/04/14 10:17:01;;;;;;;1.63;1.00;;;;;;;15.25;nan;98805.94;5025161;28;20275;-81
2023/04/14 10:19:28;;;;;;;4.20;1.33;;;;;;;15.40;nan;98795.69;5007795;28;20210;-82
2023/04/14 10:21:54;;;;;;;5.82;2.08;;;;;;;15.34;nan;98792.78;5031085;28;20190;-83
2023/04/14 10:24:20;;;;;;;1.40;1.30;;;;;;;15.39;nan;98787.88;5022269;28;20214;-81
2023/04/14 10:26:48;;;;;;;5.78;1.40;;;;;;;15.45;nan;98780.22;4999160;28;20213;-84
2023/04/14 10:29:14;;;;;;;1.83;1.10;;;;;;;15.53;nan;98779.47;5016534;28;21286;-83
2023/04/14 10:31:44;;;;;;;1.73;1.23;;;;;;;15.73;nan;98779.34;5022446;28;20226;-82
2023/04/14 10:34:11;;;;;;;3.20;1.90;;;;;;;15.94;nan;98769.28;5012962;28;21179;-83
2023/04/14 10:36:37;;;;;;;2.70;1.23;;;;;;;16.13;nan;98761.16;5003263;28;20963;-84
2023/04/14 10:39:04;;;;;;;6.70;1.50;;;;;;;16.23;nan;98762.88;5021219;28;20834;-81
2023/04/14 10:41:50;;;;;;;3.85;1.30;;;;;;;16.09;nan;98762.47;5022159;28;20198;-83
2023/04/14 10:44:30;;;;;;;2.20;1.23;;;;;;;16.02;nan;98756.13;5012499;28;20222;-81
2023/04/14 10:46:57;;;;;;;3.50;1.17;;;;;;;16.13;nan;98753.22;5022062;28;20202;-83
2023/04/14 10:49:31;;;;;;;2.55;1.23;;;;;;;16.29;nan;98749.88;5019902;28;20213;-84
2023/04/14 10:51:58;;;;;;;1.20;1.10;;;;;;;16.35;nan;98745.75;5022974;28;21166;-84
2023/04/14 10:54:23;;;;;;;3.45;1.33;;;;;;;16.27;nan;98748.34;5018137;28;20199;-84
2023/04/14 10:57:11;;;;;;;3.43;1.73;;;;;;;16.23;nan;98747.00;5022586;28;20646;-82
2023/04/14 10:59:41;;;;;;;2.08;1.38;;;;;;;16.26;nan;98744.88;5021508;28;20212;-82
2023/04/14 11:02:24;;;;;;;2.78;1.27;;;;;;;16.45;nan;98732.41;5025828;28;20303;-80
2023/04/14 11:05:03;;;;;;;4.68;0.95;;;;;;;16.51;nan;98735.25;5007672;28;20203;-81
2023/04/14 11:07:30;;;;;;;4.00;1.25;;;;;;;16.54;nan;98724.34;5027432;28;20230;-86
2023/04/14 11:10:23;;;;;;;3.90;1.30;;;;;;;16.54;nan;98719.03;5028874;28;20575;-82
2023/04/14 11:12:55;;;;;;;7.25;2.15;;;;;;;16.43;nan;98713.19;5013253;28;20229;-83
2023/04/14 11:15:20;;;;;;;1.30;1.15;;;;;;;16.40;nan;98714.31;5028089;28;20208;-83
2023/04/14 11:17:46;;;;;;;1.10;1.00;;;;;;;16.38;nan;98713.63;5022245;28;20829;-78
2023/04/14 11:20:18;;;;;;;2.23;1.50;;;;;;;16.33;nan;98711.44;5016975;28;20206;-82
2023/04/14 11:22:48;;;;;;;3.15;1.30;;;;;;;16.44;nan;98702.41;5028236;28;20669;-82
2023/04/14 11:25:16;;;;;;;3.03;1.30;;;;;;;16.52;nan;98705.09;5028363;28;20215;-83
2023/04/14 11:27:42;;;;;;;1.75;0.90;;;;;;;16.68;nan;98701.69;5008750;28;20441;-83
2023/04/14 11:30:13;;;;;;;7.43;1.20;;;;;;;16.63;nan;98697.88;5023929;28;20678;-81
2023/04/14 11:32:47;;;;;;;1.70;1.00;;;;;;;16.59;nan;98692.88;5027752;28;20723;-80
2023/04/14 11:35:13;;;;;;;4.28;0.95;;;;;;;16.51;nan;98692.00;5025720;28;20202;-83
2023/04/14 11:37:39;;;;;;;2.75;0.95;;;;;;;16.50;nan;98687.69;5028687;28;20616;-83
2023/04/14 11:40:06;;;;;;;4.07;0.87;;;;;;;16.51;nan;98679.59;5005962;28;20260;-83
2023/04/14 11:42:32;;;;;;;1.20;0.90;;;;;;;16.48;nan;98677.25;5025768;28;20232;-80
2023/04/14 11:44:58;;;;;;;4.50;0.80;;;;;;;16.36;nan;98675.84;5024819;28;20272;-83
2023/04/14 11:47:24;;;;;;;3.92;1.00;;;;;;;16.34;nan;98673.38;5023790;28;20241;-84
2023/04/14 11:49:50;;;;;;;2.90;1.10;;;;;;;16.43;nan;98668.13;5022166;28;20198;-82